createdAt,value
2022-12-11T00:00:14.720Z,999.13
2022-12-11T00:01:14.711Z,999.18
2022-12-11T00:02:14.695Z,999.14
2022-12-11T00:03:14.703Z,999.16
2022-12-11T00:04:14.695Z,999.26
2022-12-11T00:05:14.669Z,999.2
2022-12-11T00:06:14.650Z,999.18
2022-12-11T00:07:14.650Z,999.15
2022-12-11T00:08:14.649Z,999.1
2022-12-11T00:09:14.624Z,999.14
2022-12-11T00:10:14.631Z,999.2
2022-12-11T00:11:14.600Z,999.19
2022-12-11T00:12:14.594Z,999.17
2022-12-11T00:13:14.580Z,999.16
2022-12-11T00:14:14.580Z,999.11
2022-12-11T00:15:14.563Z,999.11
2022-12-11T00:16:14.569Z,999.11
2022-12-11T00:17:14.546Z,999.14
2022-12-11T00:18:14.524Z,999.14
2022-12-11T00:19:14.524Z,999.14
2022-12-11T00:20:14.522Z,999.13
2022-12-11T00:21:14.504Z,999.17
2022-12-11T00:22:14.485Z,999.12
2022-12-11T00:23:14.491Z,999.18
2022-12-11T00:24:14.462Z,999.18
2022-12-11T00:25:14.461Z,999.17
2022-12-11T00:26:14.441Z,999.18
2022-12-11T00:27:14.430Z,999.12
2022-12-11T00:28:14.429Z,999.15
2022-12-11T00:29:14.427Z,999.15
2022-12-11T00:30:14.410Z,999.19
2022-12-11T00:31:14.396Z,999.13
2022-12-11T00:32:14.379Z,999.19
2022-12-11T00:33:14.370Z,999.14
2022-12-11T00:34:14.366Z,999.19
2022-12-11T00:35:14.357Z,999.13
2022-12-11T00:36:14.337Z,999.11
2022-12-11T00:37:14.341Z,999.1
2022-12-11T00:38:14.318Z,999.12
2022-12-11T00:39:14.314Z,999.09
2022-12-11T00:40:14.306Z,999.1
2022-12-11T00:41:14.288Z,999.09
2022-12-11T00:42:14.307Z,999.11
2022-12-11T00:43:14.269Z,999.16
2022-12-11T00:44:14.257Z,999.15
2022-12-11T00:45:14.248Z,999.11
2022-12-11T00:46:14.241Z,999.12
2022-12-11T00:47:14.221Z,999.08
2022-12-11T00:48:14.215Z,999.09
2022-12-11T00:49:15.216Z,999.09
2022-12-11T00:50:23.176Z,999.23
2022-12-11T00:51:14.201Z,999.19
2022-12-11T00:52:14.178Z,999.26
2022-12-11T00:54:31.572Z,999.24
2022-12-11T00:55:31.528Z,999.23
2022-12-11T00:57:47.582Z,999.26
2022-12-11T00:58:47.573Z,999.24
2022-12-11T00:59:47.555Z,999.26
2022-12-11T01:00:47.564Z,999.23
2022-12-11T01:01:47.534Z,999.26
2022-12-11T01:02:47.518Z,999.28
2022-12-11T01:03:48.521Z,999.29
2022-12-11T01:04:47.500Z,999.33
2022-12-11T01:05:47.496Z,999.27
2022-12-11T01:06:47.482Z,999.25
2022-12-11T01:07:47.469Z,999.32
2022-12-11T01:08:47.458Z,999.3
2022-12-11T01:09:47.445Z,999.31
2022-12-11T01:10:58.263Z,999.32
2022-12-11T01:11:47.441Z,999.25
2022-12-11T01:12:47.418Z,999.31
2022-12-11T01:13:47.444Z,999.32
2022-12-11T01:14:47.394Z,999.29
2022-12-11T01:15:47.388Z,999.33
2022-12-11T01:16:47.379Z,999.24
2022-12-11T01:17:47.413Z,999.24
2022-12-11T01:18:47.376Z,999.29
2022-12-11T01:19:47.370Z,999.29
2022-12-11T01:20:47.332Z,999.34
2022-12-11T01:21:47.320Z,999.36
2022-12-11T01:22:47.316Z,999.34
2022-12-11T01:23:47.310Z,999.3
2022-12-11T01:24:47.310Z,999.31
2022-12-11T01:25:47.287Z,999.3
2022-12-11T01:26:47.286Z,999.32
2022-12-11T01:27:47.266Z,999.33
2022-12-11T01:28:47.257Z,999.3
2022-12-11T01:29:47.259Z,999.2
2022-12-11T01:30:47.224Z,999.32
2022-12-11T01:31:47.215Z,999.24
2022-12-11T01:32:47.204Z,999.31
2022-12-11T01:33:47.197Z,999.22
2022-12-11T01:34:47.187Z,999.34
2022-12-11T01:35:47.173Z,999.31
2022-12-11T01:36:47.166Z,999.28
2022-12-11T01:37:47.166Z,999.24
2022-12-11T01:38:47.158Z,999.22
2022-12-11T01:39:47.139Z,999.36
2022-12-11T01:40:47.133Z,999.21
2022-12-11T01:41:47.132Z,999.22
2022-12-11T01:42:47.114Z,999.23
2022-12-11T01:43:47.094Z,999.26
2022-12-11T01:44:47.081Z,999.26
2022-12-11T01:45:47.071Z,999.22
2022-12-11T01:46:47.065Z,999.27
2022-12-11T01:47:47.050Z,999.29
2022-12-11T01:48:47.045Z,999.25
2022-12-11T01:49:47.040Z,999.27
2022-12-11T01:50:47.034Z,999.22
2022-12-11T01:51:47.011Z,999.2
2022-12-11T01:52:47.013Z,999.22
2022-12-11T01:53:46.985Z,999.21
2022-12-11T01:54:46.984Z,999.14
2022-12-11T01:55:46.967Z,999.13
2022-12-11T01:56:46.950Z,999.14
2022-12-11T01:57:46.951Z,999.15
2022-12-11T01:58:46.936Z,999.11
2022-12-11T01:59:46.927Z,999.15
2022-12-11T02:00:46.911Z,999.17
2022-12-11T02:01:46.910Z,999.11
2022-12-11T02:02:46.910Z,999.17
2022-12-11T02:03:46.887Z,999.15
2022-12-11T02:04:46.875Z,999.13
2022-12-11T02:05:46.856Z,999.12
2022-12-11T02:06:46.846Z,999.15
2022-12-11T02:07:46.858Z,999.12
2022-12-11T02:08:46.850Z,999.16
2022-12-11T02:09:46.821Z,999.08
2022-12-11T02:10:46.823Z,999.09
2022-12-11T02:11:46.807Z,999.14
2022-12-11T02:12:46.784Z,999.09
2022-12-11T02:13:46.780Z,999.1
2022-12-11T02:14:46.785Z,999.12
2022-12-11T02:15:46.756Z,999.14
2022-12-11T02:16:46.746Z,999.04
2022-12-11T02:17:46.732Z,999.1
2022-12-11T02:18:46.726Z,999.05
2022-12-11T02:19:46.716Z,999.09
2022-12-11T02:20:46.698Z,999.08
2022-12-11T02:21:46.691Z,999.09
2022-12-11T02:22:46.691Z,999.1
2022-12-11T02:23:46.684Z,999.1
2022-12-11T02:24:46.658Z,999.08
2022-12-11T02:25:46.656Z,999.05
2022-12-11T02:26:46.638Z,999.1
2022-12-11T02:27:46.639Z,999.05
2022-12-11T02:28:46.618Z,999.08
2022-12-11T02:29:46.607Z,999.08
2022-12-11T02:30:46.602Z,999.05
2022-12-11T02:31:46.592Z,999.03
2022-12-11T02:32:46.584Z,999
2022-12-11T02:33:46.570Z,999.1
2022-12-11T02:34:46.576Z,999.05
2022-12-11T02:35:46.544Z,999.07
2022-12-11T02:36:46.536Z,998.99
2022-12-11T02:37:46.529Z,998.94
2022-12-11T02:38:46.513Z,999.03
2022-12-11T02:39:46.509Z,999.03
2022-12-11T02:40:46.493Z,999
2022-12-11T02:41:46.488Z,998.96
2022-12-11T02:42:46.472Z,998.99
2022-12-11T02:43:46.462Z,998.96
2022-12-11T02:44:46.458Z,998.96
2022-12-11T02:45:46.440Z,998.94
2022-12-11T02:46:46.429Z,998.92
2022-12-11T02:47:46.418Z,998.94
2022-12-11T02:48:46.412Z,998.94
2022-12-11T02:49:46.395Z,998.92
2022-12-11T02:50:46.386Z,998.92
2022-12-11T02:51:46.377Z,998.92
2022-12-11T02:52:46.365Z,998.91
2022-12-11T02:53:46.356Z,998.96
2022-12-11T02:54:46.362Z,998.92
2022-12-11T02:55:46.349Z,998.9
2022-12-11T02:56:46.345Z,998.96
2022-12-11T02:57:46.321Z,998.94
2022-12-11T02:58:46.310Z,998.95
2022-12-11T02:59:46.293Z,998.87
2022-12-11T03:00:46.286Z,998.9
2022-12-11T03:01:46.269Z,998.9
2022-12-11T03:02:46.274Z,998.94
2022-12-11T03:03:46.257Z,998.94
2022-12-11T03:04:46.241Z,998.93
2022-12-11T03:05:46.230Z,999
2022-12-11T03:06:46.220Z,998.98
2022-12-11T03:07:46.208Z,999
2022-12-11T03:08:46.207Z,998.96
2022-12-11T03:09:46.192Z,998.98
2022-12-11T03:10:46.177Z,999.01
2022-12-11T03:11:46.174Z,998.98
2022-12-11T03:12:46.161Z,998.98
2022-12-11T03:13:46.158Z,999.03
2022-12-11T03:14:46.136Z,998.95
2022-12-11T03:15:46.121Z,998.98
2022-12-11T03:16:46.114Z,998.91
2022-12-11T03:17:46.107Z,998.96
2022-12-11T03:18:46.094Z,998.97
2022-12-11T03:19:46.082Z,998.91
2022-12-11T03:20:46.075Z,998.95
2022-12-11T03:21:46.065Z,998.94
2022-12-11T03:22:46.063Z,998.9
2022-12-11T03:23:46.053Z,998.9
2022-12-11T03:24:46.035Z,998.9
2022-12-11T03:25:46.018Z,998.97
2022-12-11T03:26:46.011Z,998.92
2022-12-11T03:27:46.004Z,998.93
2022-12-11T03:28:46.011Z,998.94
2022-12-11T03:29:45.976Z,998.93
2022-12-11T03:30:45.976Z,998.96
2022-12-11T03:31:45.976Z,998.92
2022-12-11T03:32:45.956Z,998.9
2022-12-11T03:33:45.959Z,998.95
2022-12-11T03:34:45.933Z,998.9
2022-12-11T03:35:45.932Z,998.97
2022-12-11T03:36:45.903Z,998.97
2022-12-11T03:37:45.912Z,998.92
2022-12-11T03:38:45.888Z,998.95
2022-12-11T03:39:45.880Z,998.94
2022-12-11T03:40:45.868Z,998.88
2022-12-11T03:41:45.855Z,998.93
2022-12-11T03:42:45.844Z,998.99
2022-12-11T03:43:45.839Z,998.92
2022-12-11T03:44:45.822Z,998.96
2022-12-11T03:45:45.820Z,998.9
2022-12-11T03:46:45.799Z,998.91
2022-12-11T03:47:45.811Z,998.96
2022-12-11T03:48:45.801Z,998.87
2022-12-11T03:49:45.787Z,998.93
2022-12-11T03:50:45.761Z,998.92
2022-12-11T03:51:45.751Z,998.91
2022-12-11T03:52:45.751Z,998.95
2022-12-11T03:53:45.739Z,998.91
2022-12-11T03:54:45.731Z,998.92
2022-12-11T03:55:45.705Z,998.94
2022-12-11T03:56:45.712Z,998.89
2022-12-11T03:57:45.707Z,998.9
2022-12-11T03:58:45.690Z,998.96
2022-12-11T03:59:45.683Z,998.87
2022-12-11T04:00:45.670Z,998.92
2022-12-11T04:01:45.647Z,998.9
2022-12-11T04:02:45.635Z,998.9
2022-12-11T04:03:45.631Z,998.89
2022-12-11T04:04:45.651Z,998.91
2022-12-11T04:05:45.612Z,998.95
2022-12-11T04:06:45.597Z,998.94
2022-12-11T04:07:45.589Z,998.94
2022-12-11T04:08:45.571Z,998.95
2022-12-11T04:09:45.560Z,998.98
2022-12-11T04:10:45.553Z,998.97
2022-12-11T04:11:45.557Z,999.01
2022-12-11T04:12:45.527Z,998.98
2022-12-11T04:13:45.543Z,998.97
2022-12-11T04:14:46.430Z,998.98
2022-12-11T04:15:45.498Z,999.02
2022-12-11T04:16:45.490Z,998.98
2022-12-11T04:17:45.474Z,999
2022-12-11T04:18:45.464Z,999
2022-12-11T04:19:45.461Z,998.97
2022-12-11T04:20:45.440Z,998.96
2022-12-11T04:21:45.436Z,998.96
2022-12-11T04:22:45.426Z,999.01
2022-12-11T04:23:45.415Z,999.01
2022-12-11T04:24:45.404Z,998.97
2022-12-11T04:25:45.396Z,999.01
2022-12-11T04:26:45.381Z,999.05
2022-12-11T04:27:45.380Z,998.99
2022-12-11T04:28:45.374Z,999.05
2022-12-11T04:29:45.366Z,999.05
2022-12-11T04:30:45.344Z,999
2022-12-11T04:31:45.325Z,999.02
2022-12-11T04:32:45.318Z,999.03
2022-12-11T04:33:45.313Z,999.01
2022-12-11T04:34:45.307Z,998.96
2022-12-11T04:35:45.287Z,999.02
2022-12-11T04:36:45.280Z,999.02
2022-12-11T04:37:45.278Z,999.01
2022-12-11T04:38:45.261Z,998.98
2022-12-11T04:39:45.247Z,998.97
2022-12-11T04:40:45.250Z,999.04
2022-12-11T04:41:45.222Z,998.97
2022-12-11T04:42:45.212Z,999
2022-12-11T04:43:45.203Z,998.96
2022-12-11T04:44:45.196Z,998.99
2022-12-11T04:45:45.183Z,998.93
2022-12-11T04:46:45.172Z,998.87
2022-12-11T04:47:45.164Z,998.91
2022-12-11T04:48:45.167Z,998.88
2022-12-11T04:49:45.149Z,998.85
2022-12-11T04:50:45.131Z,998.83
2022-12-11T04:51:45.121Z,998.76
2022-12-11T04:52:45.105Z,998.79
2022-12-11T04:53:45.157Z,998.83
2022-12-11T04:54:45.114Z,998.78
2022-12-11T04:55:45.183Z,998.8
2022-12-11T04:56:45.078Z,998.8
2022-12-11T04:57:45.063Z,998.8
2022-12-11T04:58:45.041Z,998.82
2022-12-11T04:59:45.037Z,998.76
2022-12-11T05:00:45.026Z,998.77
2022-12-11T05:01:45.043Z,998.76
2022-12-11T05:02:45.007Z,998.78
2022-12-11T05:03:45.005Z,998.79
2022-12-11T05:04:44.987Z,998.8
2022-12-11T05:05:44.979Z,998.81
2022-12-11T05:06:44.965Z,998.73
2022-12-11T05:07:44.953Z,998.82
2022-12-11T05:08:45.001Z,998.78
2022-12-11T05:09:44.942Z,998.82
2022-12-11T05:10:44.920Z,998.85
2022-12-11T05:11:44.918Z,998.86
2022-12-11T05:12:45.043Z,998.83
2022-12-11T05:13:44.898Z,998.86
2022-12-11T05:14:44.899Z,998.83
2022-12-11T05:15:44.873Z,998.87
2022-12-11T05:16:44.857Z,998.88
2022-12-11T05:17:44.861Z,998.86
2022-12-11T05:18:44.848Z,998.88
2022-12-11T05:19:44.832Z,998.85
2022-12-11T05:20:44.820Z,998.81
2022-12-11T05:21:44.819Z,998.82
2022-12-11T05:22:44.794Z,998.83
2022-12-11T05:23:44.781Z,998.76
2022-12-11T05:24:44.782Z,998.82
2022-12-11T05:25:44.764Z,998.84
2022-12-11T05:26:44.757Z,998.8
2022-12-11T05:27:44.754Z,998.84
2022-12-11T05:28:44.766Z,998.8
2022-12-11T05:29:44.737Z,998.84
2022-12-11T05:30:44.713Z,998.79
2022-12-11T05:31:44.736Z,998.79
2022-12-11T05:32:44.689Z,998.78
2022-12-11T05:33:44.710Z,998.84
2022-12-11T05:34:44.668Z,998.78
2022-12-11T05:35:44.678Z,998.86
2022-12-11T05:36:44.653Z,998.84
2022-12-11T05:37:44.657Z,998.9
2022-12-11T05:38:44.632Z,998.76
2022-12-11T05:39:44.628Z,998.82
2022-12-11T05:40:44.614Z,998.86
2022-12-11T05:41:44.620Z,998.81
2022-12-11T05:42:44.600Z,998.8
2022-12-11T05:43:44.581Z,998.78
2022-12-11T05:44:44.564Z,998.76
2022-12-11T05:45:44.566Z,998.72
2022-12-11T05:46:44.556Z,998.72
2022-12-11T05:47:44.541Z,998.71
2022-12-11T05:48:44.527Z,998.65
2022-12-11T05:49:44.515Z,998.7
2022-12-11T05:50:44.504Z,998.69
2022-12-11T05:51:44.504Z,998.63
2022-12-11T05:52:44.481Z,998.7
2022-12-11T05:53:44.473Z,998.75
2022-12-11T05:54:44.460Z,998.69
2022-12-11T05:55:44.450Z,998.7
2022-12-11T05:56:44.445Z,998.72
2022-12-11T05:57:44.426Z,998.75
2022-12-11T05:58:44.427Z,998.79
2022-12-11T05:59:44.417Z,998.73
2022-12-11T06:00:44.397Z,998.71
2022-12-11T06:01:44.391Z,998.71
2022-12-11T06:02:44.383Z,998.76
2022-12-11T06:03:44.369Z,998.74
2022-12-11T06:04:44.363Z,998.79
2022-12-11T06:05:44.348Z,998.78
2022-12-11T06:06:44.345Z,998.78
2022-12-11T06:07:44.322Z,998.7
2022-12-11T06:08:44.333Z,998.73
2022-12-11T06:09:44.300Z,998.8
2022-12-11T06:10:44.294Z,998.74
2022-12-11T06:11:44.283Z,998.74
2022-12-11T06:12:44.273Z,998.75
2022-12-11T06:13:44.259Z,998.73
2022-12-11T06:14:44.254Z,998.73
2022-12-11T06:15:44.235Z,998.72
2022-12-11T06:16:44.232Z,998.75
2022-12-11T06:17:44.221Z,998.75
2022-12-11T06:18:44.215Z,998.76
2022-12-11T06:19:44.201Z,998.73
2022-12-11T06:20:44.187Z,998.75
2022-12-11T06:21:44.174Z,998.69
2022-12-11T06:22:44.172Z,998.64
2022-12-11T06:23:44.166Z,998.69
2022-12-11T06:24:44.161Z,998.69
2022-12-11T06:25:44.134Z,998.63
2022-12-11T06:26:44.127Z,998.69
2022-12-11T06:27:44.130Z,998.62
2022-12-11T06:28:44.107Z,998.62
2022-12-11T06:29:44.095Z,998.62
2022-12-11T06:30:44.096Z,998.59
2022-12-11T06:31:44.074Z,998.66
2022-12-11T06:32:44.065Z,998.63
2022-12-11T06:33:44.053Z,998.61
2022-12-11T06:34:44.042Z,998.62
2022-12-11T06:35:44.035Z,998.64
2022-12-11T06:36:44.020Z,998.64
2022-12-11T06:37:44.023Z,998.65
2022-12-11T06:38:43.996Z,998.7
2022-12-11T06:39:43.991Z,998.61
2022-12-11T06:40:43.985Z,998.62
2022-12-11T06:41:43.969Z,998.6
2022-12-11T06:42:43.964Z,998.6
2022-12-11T06:43:43.945Z,998.57
2022-12-11T06:44:43.939Z,998.61
2022-12-11T06:45:43.935Z,998.6
2022-12-11T06:46:43.919Z,998.58
2022-12-11T06:47:43.916Z,998.53
2022-12-11T06:48:43.901Z,998.52
2022-12-11T06:49:43.887Z,998.58
2022-12-11T06:50:43.877Z,998.56
2022-12-11T06:51:43.863Z,998.54
2022-12-11T06:52:43.855Z,998.5
2022-12-11T06:53:43.841Z,998.53
2022-12-11T06:54:43.836Z,998.54
2022-12-11T06:55:43.822Z,998.56
2022-12-11T06:56:43.811Z,998.53
2022-12-11T06:57:43.808Z,998.55
2022-12-11T06:58:43.801Z,998.53
2022-12-11T06:59:43.777Z,998.56
2022-12-11T07:00:43.788Z,998.52
2022-12-11T07:01:43.764Z,998.56
2022-12-11T07:02:43.749Z,998.61
2022-12-11T07:03:43.738Z,998.56
2022-12-11T07:04:43.730Z,998.58
2022-12-11T07:05:43.718Z,998.61
2022-12-11T07:06:43.710Z,998.62
2022-12-11T07:07:43.698Z,998.64
2022-12-11T07:08:43.687Z,998.6
2022-12-11T07:09:43.678Z,998.63
2022-12-11T07:10:43.660Z,998.65
2022-12-11T07:11:43.653Z,998.58
2022-12-11T07:12:43.650Z,998.59
2022-12-11T07:13:43.636Z,998.66
2022-12-11T07:14:43.621Z,998.65
2022-12-11T07:15:43.612Z,998.72
2022-12-11T07:16:43.603Z,998.7
2022-12-11T07:17:43.589Z,998.71
2022-12-11T07:18:43.584Z,998.76
2022-12-11T07:19:43.572Z,998.71
2022-12-11T07:20:43.563Z,998.79
2022-12-11T07:21:43.548Z,998.77
2022-12-11T07:22:43.538Z,998.84
2022-12-11T07:23:43.524Z,998.8
2022-12-11T07:24:43.518Z,998.81
2022-12-11T07:25:43.510Z,998.8
2022-12-11T07:26:43.495Z,998.85
2022-12-11T07:27:43.485Z,998.84
2022-12-11T07:28:43.474Z,998.82
2022-12-11T07:29:43.476Z,998.8
2022-12-11T07:30:43.460Z,998.83
2022-12-11T07:31:43.438Z,998.84
2022-12-11T07:32:43.462Z,998.8
2022-12-11T07:33:43.421Z,998.82
2022-12-11T07:34:43.419Z,998.79
2022-12-11T07:35:43.403Z,998.78
2022-12-11T07:36:43.426Z,998.79
2022-12-11T07:37:43.375Z,998.75
2022-12-11T07:38:43.365Z,998.78
2022-12-11T07:39:43.357Z,998.85
2022-12-11T07:40:43.344Z,998.8
2022-12-11T07:41:43.351Z,998.86
2022-12-11T07:42:43.327Z,998.75
2022-12-11T07:43:43.313Z,998.8
2022-12-11T07:44:43.312Z,998.77
2022-12-11T07:45:43.296Z,998.8
2022-12-11T07:46:43.284Z,998.82
2022-12-11T07:47:43.276Z,998.84
2022-12-11T07:48:43.269Z,998.88
2022-12-11T07:49:43.265Z,998.83
2022-12-11T07:50:43.239Z,998.93
2022-12-11T07:51:43.235Z,998.9
2022-12-11T07:52:43.224Z,998.9
2022-12-11T07:53:43.211Z,998.88
2022-12-11T07:54:43.203Z,998.86
2022-12-11T07:55:43.194Z,998.84
2022-12-11T07:56:43.180Z,998.91
2022-12-11T07:57:43.172Z,998.89
2022-12-11T07:58:43.162Z,998.86
2022-12-11T07:59:43.145Z,998.87
2022-12-11T08:00:43.155Z,998.88
2022-12-11T08:01:43.131Z,998.86
2022-12-11T08:02:43.123Z,998.86
2022-12-11T08:03:43.103Z,998.84
2022-12-11T08:04:43.093Z,998.86
2022-12-11T08:05:43.085Z,998.79
2022-12-11T08:06:43.076Z,998.8
2022-12-11T08:07:43.074Z,998.83
2022-12-11T08:08:43.054Z,998.86
2022-12-11T08:09:43.041Z,998.84
2022-12-11T08:10:43.054Z,998.82
2022-12-11T08:11:43.029Z,998.8
2022-12-11T08:12:43.011Z,998.84
2022-12-11T08:13:43.003Z,998.84
2022-12-11T08:14:42.989Z,998.85
2022-12-11T08:15:42.983Z,998.81
2022-12-11T08:16:42.973Z,998.85
2022-12-11T08:17:42.957Z,998.88
2022-12-11T08:18:42.958Z,998.86
2022-12-11T08:19:42.937Z,998.86
2022-12-11T08:20:42.933Z,998.82
2022-12-11T08:21:42.918Z,998.92
2022-12-11T08:22:42.905Z,998.89
2022-12-11T08:23:42.896Z,998.84
2022-12-11T08:24:42.883Z,998.93
2022-12-11T08:25:42.894Z,998.87
2022-12-11T08:26:42.865Z,998.88
2022-12-11T08:27:42.858Z,998.89
2022-12-11T08:28:42.840Z,998.9
2022-12-11T08:29:42.830Z,998.83
2022-12-11T08:30:42.826Z,998.83
2022-12-11T08:31:42.811Z,998.81
2022-12-11T08:32:42.819Z,998.88
2022-12-11T08:33:42.792Z,998.9
2022-12-11T08:34:42.781Z,998.87
2022-12-11T08:35:42.768Z,998.82
2022-12-11T08:36:42.770Z,998.83
2022-12-11T08:37:42.761Z,998.8
2022-12-11T08:38:42.736Z,998.86
2022-12-11T08:39:42.725Z,998.86
2022-12-11T08:40:42.718Z,998.88
2022-12-11T08:41:42.707Z,998.89
2022-12-11T08:42:42.699Z,998.85
2022-12-11T08:43:42.687Z,998.82
2022-12-11T08:44:42.683Z,998.8
2022-12-11T08:45:42.674Z,998.83
2022-12-11T08:46:42.654Z,998.84
2022-12-11T08:47:42.648Z,998.81
2022-12-11T08:48:42.637Z,998.81
2022-12-11T08:49:42.661Z,998.77
2022-12-11T08:50:42.614Z,998.86
2022-12-11T08:51:42.602Z,998.85
2022-12-11T08:52:42.593Z,998.83
2022-12-11T08:53:42.580Z,998.86
2022-12-11T08:54:42.567Z,998.91
2022-12-11T08:55:42.561Z,998.84
2022-12-11T08:56:42.547Z,998.92
2022-12-11T08:57:42.540Z,998.91
2022-12-11T08:58:42.529Z,998.92
2022-12-11T08:59:42.517Z,998.91
2022-12-11T09:00:42.517Z,998.87
2022-12-11T09:01:42.501Z,998.87
2022-12-11T09:02:42.490Z,998.86
2022-12-11T09:03:42.487Z,998.89
2022-12-11T09:04:42.472Z,998.86
2022-12-11T09:05:42.456Z,998.93
2022-12-11T09:06:42.446Z,998.89
2022-12-11T09:07:42.437Z,998.85
2022-12-11T09:08:42.425Z,998.91
2022-12-11T09:09:42.411Z,998.86
2022-12-11T09:10:42.403Z,998.9
2022-12-11T09:11:42.395Z,998.85
2022-12-11T09:12:42.381Z,998.91
2022-12-11T09:13:42.373Z,998.92
2022-12-11T09:14:43.362Z,998.93
2022-12-11T09:15:42.349Z,998.92
2022-12-11T09:16:42.342Z,998.9
2022-12-11T09:17:42.330Z,998.92
2022-12-11T09:18:42.332Z,998.91
2022-12-11T09:19:42.307Z,998.9
2022-12-11T09:20:42.295Z,998.9
2022-12-11T09:21:42.287Z,998.91
2022-12-11T09:22:42.278Z,998.94
2022-12-11T09:23:42.270Z,998.91
2022-12-11T09:24:42.256Z,998.88
2022-12-11T09:25:42.244Z,998.87
2022-12-11T09:26:42.234Z,998.91
2022-12-11T09:27:42.222Z,998.92
2022-12-11T09:28:42.210Z,998.95
2022-12-11T09:29:42.203Z,998.91
2022-12-11T09:30:42.193Z,998.91
2022-12-11T09:31:42.180Z,998.88
2022-12-11T09:32:42.171Z,998.9
2022-12-11T09:33:42.158Z,998.87
2022-12-11T09:34:42.146Z,998.89
2022-12-11T09:35:42.140Z,998.92
2022-12-11T09:36:42.128Z,998.88
2022-12-11T09:37:42.119Z,998.87
2022-12-11T09:38:42.108Z,998.85
2022-12-11T09:39:42.122Z,998.85
2022-12-11T09:40:42.088Z,998.81
2022-12-11T09:41:42.077Z,998.81
2022-12-11T09:42:42.064Z,998.8
2022-12-11T09:43:42.072Z,998.82
2022-12-11T09:44:42.054Z,998.77
2022-12-11T09:45:42.041Z,998.8
2022-12-11T09:46:42.024Z,998.75
2022-12-11T09:47:42.015Z,998.74
2022-12-11T09:48:42.012Z,998.75
2022-12-11T09:49:41.992Z,998.72
2022-12-11T09:50:41.981Z,998.7
2022-12-11T09:51:41.982Z,998.7
2022-12-11T09:52:41.984Z,998.65
2022-12-11T09:53:41.996Z,998.65
2022-12-11T09:54:41.939Z,998.68
2022-12-11T09:55:41.930Z,998.67
2022-12-11T09:56:41.915Z,998.67
2022-12-11T09:57:41.910Z,998.63
2022-12-11T09:58:41.900Z,998.61
2022-12-11T09:59:41.889Z,998.64
2022-12-11T10:00:41.879Z,998.66
2022-12-11T10:01:41.864Z,998.64
2022-12-11T10:02:41.855Z,998.57
2022-12-11T10:03:41.852Z,998.63
2022-12-11T10:04:41.839Z,998.57
2022-12-11T10:05:41.825Z,998.6
2022-12-11T10:06:41.813Z,998.65
2022-12-11T10:07:41.804Z,998.6
2022-12-11T10:08:41.793Z,998.65
2022-12-11T10:09:41.782Z,998.62
2022-12-11T10:10:41.771Z,998.63
2022-12-11T10:11:41.775Z,998.69
2022-12-11T10:12:41.748Z,998.65
2022-12-11T10:13:41.740Z,998.72
2022-12-11T10:14:41.730Z,998.63
2022-12-11T10:15:41.720Z,998.65
2022-12-11T10:16:41.711Z,998.6
2022-12-11T10:17:41.699Z,998.63
2022-12-11T10:18:41.690Z,998.6
2022-12-11T10:19:41.678Z,998.62
2022-12-11T10:20:41.669Z,998.56
2022-12-11T10:21:41.654Z,998.59
2022-12-11T10:22:41.641Z,998.63
2022-12-11T10:23:41.636Z,998.62
2022-12-11T10:24:41.621Z,998.63
2022-12-11T10:25:41.616Z,998.59
2022-12-11T10:26:41.600Z,998.59
2022-12-11T10:27:41.595Z,998.59
2022-12-11T10:28:41.595Z,998.64
2022-12-11T10:29:41.579Z,998.55
2022-12-11T10:30:41.571Z,998.52
2022-12-11T10:31:41.566Z,998.52
2022-12-11T10:32:41.555Z,998.54
2022-12-11T10:33:41.531Z,998.55
2022-12-11T10:34:41.521Z,998.52
2022-12-11T10:35:41.506Z,998.51
2022-12-11T10:36:41.500Z,998.5
2022-12-11T10:37:41.488Z,998.53
2022-12-11T10:38:41.478Z,998.47
2022-12-11T10:39:41.489Z,998.47
2022-12-11T10:40:41.464Z,998.49
2022-12-11T10:41:41.448Z,998.5
2022-12-11T10:42:41.436Z,998.5
2022-12-11T10:43:41.458Z,998.52
2022-12-11T10:44:41.409Z,998.46
2022-12-11T10:45:41.405Z,998.45
2022-12-11T10:46:41.393Z,998.46
2022-12-11T10:47:41.387Z,998.46
2022-12-11T10:48:41.370Z,998.44
2022-12-11T10:49:41.363Z,998.46
2022-12-11T10:50:41.349Z,998.44
2022-12-11T10:51:41.358Z,998.45
2022-12-11T10:52:41.329Z,998.44
2022-12-11T10:53:41.325Z,998.41
2022-12-11T10:54:41.310Z,998.4
2022-12-11T10:55:41.298Z,998.42
2022-12-11T10:56:41.286Z,998.41
2022-12-11T10:57:41.273Z,998.38
2022-12-11T10:58:41.265Z,998.39
2022-12-11T10:59:41.259Z,998.34
2022-12-11T11:00:41.250Z,998.41
2022-12-11T11:01:41.237Z,998.36
2022-12-11T11:02:41.226Z,998.31
2022-12-11T11:03:41.219Z,998.32
2022-12-11T11:04:41.203Z,998.37
2022-12-11T11:05:41.196Z,998.35
2022-12-11T11:06:41.183Z,998.38
2022-12-11T11:07:41.172Z,998.4
2022-12-11T11:08:41.160Z,998.42
2022-12-11T11:09:41.152Z,998.47
2022-12-11T11:10:41.142Z,998.41
2022-12-11T11:11:41.127Z,998.43
2022-12-11T11:12:41.118Z,998.47
2022-12-11T11:13:41.116Z,998.46
2022-12-11T11:14:41.093Z,998.43
2022-12-11T11:15:41.087Z,998.49
2022-12-11T11:16:41.076Z,998.47
2022-12-11T11:17:41.064Z,998.47
2022-12-11T11:18:41.055Z,998.43
2022-12-11T11:19:41.047Z,998.46
2022-12-11T11:20:41.048Z,998.48
2022-12-11T11:21:41.030Z,998.48
2022-12-11T11:22:41.025Z,998.47
2022-12-11T11:23:41.001Z,998.45
2022-12-11T11:24:40.993Z,998.43
2022-12-11T11:25:40.983Z,998.47
2022-12-11T11:26:40.973Z,998.45
2022-12-11T11:27:40.958Z,998.48
2022-12-11T11:28:40.954Z,998.42
2022-12-11T11:29:40.940Z,998.45
2022-12-11T11:30:40.931Z,998.39
2022-12-11T11:31:40.918Z,998.42
2022-12-11T11:32:40.904Z,998.45
2022-12-11T11:33:40.927Z,998.38
2022-12-11T11:34:40.888Z,998.41
2022-12-11T11:35:40.876Z,998.47
2022-12-11T11:36:40.871Z,998.42
2022-12-11T11:37:40.866Z,998.45
2022-12-11T11:38:40.911Z,998.37
2022-12-11T11:39:40.836Z,998.37
2022-12-11T11:40:40.830Z,998.35
2022-12-11T11:41:40.819Z,998.36
2022-12-11T11:42:40.806Z,998.36
2022-12-11T11:43:40.797Z,998.33
2022-12-11T11:44:40.785Z,998.37
2022-12-11T11:45:40.776Z,998.31
2022-12-11T11:46:40.759Z,998.31
2022-12-11T11:47:40.753Z,998.32
2022-12-11T11:48:40.740Z,998.32
2022-12-11T11:49:40.763Z,998.37
2022-12-11T11:50:40.724Z,998.38
2022-12-11T11:51:40.714Z,998.36
2022-12-11T11:52:40.696Z,998.33
2022-12-11T11:53:40.697Z,998.38
2022-12-11T11:54:40.680Z,998.32
2022-12-11T11:55:40.666Z,998.37
2022-12-11T11:56:40.656Z,998.34
2022-12-11T11:57:40.644Z,998.32
2022-12-11T11:58:40.635Z,998.35
2022-12-11T11:59:40.625Z,998.24
2022-12-11T12:00:40.612Z,998.33
2022-12-11T12:01:40.620Z,998.25
2022-12-11T12:02:40.597Z,998.19
2022-12-11T12:03:40.582Z,998.22
2022-12-11T12:04:40.571Z,998.23
2022-12-11T12:05:40.570Z,998.22
2022-12-11T12:06:40.558Z,998.2
2022-12-11T12:07:40.538Z,998.22
2022-12-11T12:08:40.537Z,998.15
2022-12-11T12:09:40.526Z,998.19
2022-12-11T12:10:40.515Z,998.17
2022-12-11T12:11:40.500Z,998.19
2022-12-11T12:12:40.490Z,998.21
2022-12-11T12:13:40.475Z,998.16
2022-12-11T12:14:40.464Z,998.18
2022-12-11T12:15:40.457Z,998.21
2022-12-11T12:16:40.445Z,998.24
2022-12-11T12:17:40.442Z,998.2
2022-12-11T12:18:40.426Z,998.16
2022-12-11T12:19:40.415Z,998.17
2022-12-11T12:20:40.402Z,998.18
2022-12-11T12:21:40.393Z,998.15
2022-12-11T12:22:40.384Z,998.18
2022-12-11T12:23:40.376Z,998.12
2022-12-11T12:24:40.366Z,998.08
2022-12-11T12:25:40.352Z,998.15
2022-12-11T12:26:40.340Z,998.18
2022-12-11T12:27:40.332Z,998.15
2022-12-11T12:28:40.351Z,998.15
2022-12-11T12:29:40.305Z,998.09
2022-12-11T12:30:40.317Z,998.13
2022-12-11T12:31:40.288Z,998.14
2022-12-11T12:32:40.277Z,998.12
2022-12-11T12:33:40.268Z,998.14